Terminal Aerodrome Forecast
Issued by NWS Jacksonville, FL

Home | Current Version | Previous Version | Text Only | Print | Product List | Glossary On
Versions: 1 2 3 4 5 6 7 8 9 10 11 12 13 14 15 16 17 18 19 20 21 22 23 24
000
FTUS42 KJAX 311120
TAFGNV
TAF
KGNV 311120Z 3112/0112 14003KT P6SM SKC
     FM311600 24008KT P6SM VCTS BKN050CB
     FM311800 21012KT P6SM OVC050
      TEMPO 3118/3120 P6SM -TSRA BKN050CB
     FM312000 21010KT P6SM VCTS SCT025CB BKN050
      TEMPO 3120/3124 1SM TSRA BKN025CB BKN050
     FM010000 21005KT P6SM SCT250=

USA.gov is the U.S. government's official web portal to all federal, state and local government web resources and services.